sensor_id;sensor_type;location;lat;lon;timestamp;P1;durP1;ratioP1;P2;durP2;ratioP2
11970;SDS011;6045;42.682;23.294;2023-12-04T00:01:58;6.43;;;4.03;;
11970;SDS011;6045;42.682;23.294;2023-12-04T00:04:25;5.97;;;3.60;;
11970;SDS011;6045;42.682;23.294;2023-12-04T00:06:51;5.10;;;3.63;;
11970;SDS011;6045;42.682;23.294;2023-12-04T00:09:18;6.57;;;3.80;;
11970;SDS011;6045;42.682;23.294;2023-12-04T00:11:46;6.07;;;3.83;;
11970;SDS011;6045;42.682;23.294;2023-12-04T00:14:13;9.00;;;4.40;;
11970;SDS011;6045;42.682;23.294;2023-12-04T00:16:41;2.73;;;1.97;;
11970;SDS011;6045;42.682;23.294;2023-12-04T00:19:08;5.77;;;3.90;;
11970;SDS011;6045;42.682;23.294;2023-12-04T00:21:35;5.57;;;3.63;;
11970;SDS011;6045;42.682;23.294;2023-12-04T00:24:02;6.50;;;3.87;;
11970;SDS011;6045;42.682;23.294;2023-12-04T00:26:30;5.50;;;2.90;;
11970;SDS011;6045;42.682;23.294;2023-12-04T00:28:57;4.27;;;3.00;;
11970;SDS011;6045;42.682;23.294;2023-12-04T00:31:24;5.63;;;3.30;;
11970;SDS011;6045;42.682;23.294;2023-12-04T00:33:52;5.00;;;3.40;;
11970;SDS011;6045;42.682;23.294;2023-12-04T00:36:19;4.40;;;3.27;;
11970;SDS011;6045;42.682;23.294;2023-12-04T00:38:46;8.70;;;4.33;;
11970;SDS011;6045;42.682;23.294;2023-12-04T00:41:13;7.10;;;4.57;;
11970;SDS011;6045;42.682;23.294;2023-12-04T00:43:40;5.13;;;3.23;;
11970;SDS011;6045;42.682;23.294;2023-12-04T00:46:07;8.53;;;4.57;;
11970;SDS011;6045;42.682;23.294;2023-12-04T00:48:34;6.77;;;3.97;;
11970;SDS011;6045;42.682;23.294;2023-12-04T00:51:02;7.80;;;4.60;;
11970;SDS011;6045;42.682;23.294;2023-12-04T00:53:29;7.73;;;3.70;;
11970;SDS011;6045;42.682;23.294;2023-12-04T00:55:56;10.33;;;4.40;;
11970;SDS011;6045;42.682;23.294;2023-12-04T00:58:23;6.90;;;4.27;;
11970;SDS011;6045;42.682;23.294;2023-12-04T01:00:50;8.10;;;4.30;;
11970;SDS011;6045;42.682;23.294;2023-12-04T01:03:17;8.00;;;4.30;;
11970;SDS011;6045;42.682;23.294;2023-12-04T01:05:44;7.33;;;4.43;;
11970;SDS011;6045;42.682;23.294;2023-12-04T01:08:13;8.80;;;4.07;;
11970;SDS011;6045;42.682;23.294;2023-12-04T01:10:40;4.80;;;3.70;;
11970;SDS011;6045;42.682;23.294;2023-12-04T01:13:06;5.23;;;3.70;;
11970;SDS011;6045;42.682;23.294;2023-12-04T01:15:33;7.30;;;4.20;;
11970;SDS011;6045;42.682;23.294;2023-12-04T01:18:01;6.90;;;4.27;;
11970;SDS011;6045;42.682;23.294;2023-12-04T01:20:28;7.63;;;4.60;;
11970;SDS011;6045;42.682;23.294;2023-12-04T01:22:55;6.33;;;3.60;;
11970;SDS011;6045;42.682;23.294;2023-12-04T01:25:24;4.27;;;3.43;;
11970;SDS011;6045;42.682;23.294;2023-12-04T01:27:50;6.93;;;3.93;;
11970;SDS011;6045;42.682;23.294;2023-12-04T01:30:17;4.73;;;3.87;;
11970;SDS011;6045;42.682;23.294;2023-12-04T01:32:44;6.93;;;4.87;;
11970;SDS011;6045;42.682;23.294;2023-12-04T01:35:11;7.20;;;4.30;;
11970;SDS011;6045;42.682;23.294;2023-12-04T01:37:38;7.73;;;4.37;;
11970;SDS011;6045;42.682;23.294;2023-12-04T01:40:06;7.27;;;4.23;;
11970;SDS011;6045;42.682;23.294;2023-12-04T01:42:35;6.00;;;4.00;;
11970;SDS011;6045;42.682;23.294;2023-12-04T01:45:03;8.27;;;4.70;;
11970;SDS011;6045;42.682;23.294;2023-12-04T01:47:30;6.77;;;4.10;;
11970;SDS011;6045;42.682;23.294;2023-12-04T01:49:57;6.03;;;3.73;;
11970;SDS011;6045;42.682;23.294;2023-12-04T01:52:24;6.20;;;3.87;;
11970;SDS011;6045;42.682;23.294;2023-12-04T01:54:51;7.77;;;4.53;;
11970;SDS011;6045;42.682;23.294;2023-12-04T01:57:18;7.73;;;4.53;;
11970;SDS011;6045;42.682;23.294;2023-12-04T01:59:47;6.90;;;4.50;;
11970;SDS011;6045;42.682;23.294;2023-12-04T02:02:14;6.43;;;3.90;;
11970;SDS011;6045;42.682;23.294;2023-12-04T02:04:41;6.23;;;4.17;;
11970;SDS011;6045;42.682;23.294;2023-12-04T02:07:08;8.37;;;4.30;;
11970;SDS011;6045;42.682;23.294;2023-12-04T02:09:35;8.27;;;3.73;;
11970;SDS011;6045;42.682;23.294;2023-12-04T02:12:02;9.40;;;4.93;;
11970;SDS011;6045;42.682;23.294;2023-12-04T02:14:30;5.30;;;3.83;;
11970;SDS011;6045;42.682;23.294;2023-12-04T02:16:58;9.33;;;4.40;;
11970;SDS011;6045;42.682;23.294;2023-12-04T02:19:27;6.40;;;4.10;;
11970;SDS011;6045;42.682;23.294;2023-12-04T02:21:54;6.90;;;4.67;;
11970;SDS011;6045;42.682;23.294;2023-12-04T02:24:22;6.73;;;3.60;;
11970;SDS011;6045;42.682;23.294;2023-12-04T02:26:50;7.53;;;4.47;;
11970;SDS011;6045;42.682;23.294;2023-12-04T02:29:22;5.20;;;3.97;;
11970;SDS011;6045;42.682;23.294;2023-12-04T02:31:52;6.27;;;3.77;;
11970;SDS011;6045;42.682;23.294;2023-12-04T02:34:21;5.87;;;4.03;;
11970;SDS011;6045;42.682;23.294;2023-12-04T02:36:50;7.27;;;3.97;;
11970;SDS011;6045;42.682;23.294;2023-12-04T02:39:20;6.80;;;4.53;;
11970;SDS011;6045;42.682;23.294;2023-12-04T02:41:49;5.53;;;3.70;;
11970;SDS011;6045;42.682;23.294;2023-12-04T02:44:17;9.17;;;4.00;;
11970;SDS011;6045;42.682;23.294;2023-12-04T02:46:44;4.67;;;3.40;;
11970;SDS011;6045;42.682;23.294;2023-12-04T02:49:11;6.90;;;3.97;;
11970;SDS011;6045;42.682;23.294;2023-12-04T02:51:40;7.70;;;4.27;;
11970;SDS011;6045;42.682;23.294;2023-12-04T02:54:07;7.07;;;3.57;;
11970;SDS011;6045;42.682;23.294;2023-12-04T02:56:34;6.40;;;4.40;;
11970;SDS011;6045;42.682;23.294;2023-12-04T02:59:02;6.83;;;3.57;;
11970;SDS011;6045;42.682;23.294;2023-12-04T03:01:29;7.13;;;3.97;;
11970;SDS011;6045;42.682;23.294;2023-12-04T03:03:56;7.07;;;3.50;;
11970;SDS011;6045;42.682;23.294;2023-12-04T03:06:23;7.07;;;4.07;;
11970;SDS011;6045;42.682;23.294;2023-12-04T03:08:50;6.47;;;4.20;;
11970;SDS011;6045;42.682;23.294;2023-12-04T03:11:17;7.47;;;4.43;;
11970;SDS011;6045;42.682;23.294;2023-12-04T03:13:44;3.47;;;3.00;;
11970;SDS011;6045;42.682;23.294;2023-12-04T03:16:16;7.57;;;3.90;;
11970;SDS011;6045;42.682;23.294;2023-12-04T03:18:43;6.47;;;3.73;;
11970;SDS011;6045;42.682;23.294;2023-12-04T03:21:10;6.17;;;3.57;;
11970;SDS011;6045;42.682;23.294;2023-12-04T03:23:37;6.43;;;3.63;;
11970;SDS011;6045;42.682;23.294;2023-12-04T03:26:03;6.80;;;4.03;;
11970;SDS011;6045;42.682;23.294;2023-12-04T03:28:31;4.60;;;3.40;;
11970;SDS011;6045;42.682;23.294;2023-12-04T03:30:58;5.50;;;3.80;;
11970;SDS011;6045;42.682;23.294;2023-12-04T03:33:26;6.47;;;3.70;;
11970;SDS011;6045;42.682;23.294;2023-12-04T03:35:53;7.37;;;3.47;;
11970;SDS011;6045;42.682;23.294;2023-12-04T03:38:20;7.10;;;3.60;;
11970;SDS011;6045;42.682;23.294;2023-12-04T03:40:47;6.83;;;3.70;;
11970;SDS011;6045;42.682;23.294;2023-12-04T03:43:14;5.60;;;4.20;;
11970;SDS011;6045;42.682;23.294;2023-12-04T03:45:41;7.27;;;4.23;;
11970;SDS011;6045;42.682;23.294;2023-12-04T03:48:07;8.07;;;3.43;;
11970;SDS011;6045;42.682;23.294;2023-12-04T03:50:36;4.67;;;3.30;;
11970;SDS011;6045;42.682;23.294;2023-12-04T03:53:03;5.53;;;3.73;;
11970;SDS011;6045;42.682;23.294;2023-12-04T03:55:30;5.67;;;3.57;;
11970;SDS011;6045;42.682;23.294;2023-12-04T03:57:57;7.07;;;3.47;;
11970;SDS011;6045;42.682;23.294;2023-12-04T04:00:24;5.10;;;3.63;;
11970;SDS011;6045;42.682;23.294;2023-12-04T04:02:51;5.93;;;3.23;;
11970;SDS011;6045;42.682;23.294;2023-12-04T04:05:18;6.57;;;3.60;;
11970;SDS011;6045;42.682;23.294;2023-12-04T04:07:46;6.43;;;4.10;;
11970;SDS011;6045;42.682;23.294;2023-12-04T04:10:13;7.93;;;3.93;;
11970;SDS011;6045;42.682;23.294;2023-12-04T04:12:40;8.87;;;4.63;;
11970;SDS011;6045;42.682;23.294;2023-12-04T04:15:07;7.17;;;4.20;;
11970;SDS011;6045;42.682;23.294;2023-12-04T04:17:35;7.53;;;3.87;;
11970;SDS011;6045;42.682;23.294;2023-12-04T04:20:01;7.83;;;4.30;;
11970;SDS011;6045;42.682;23.294;2023-12-04T04:22:28;6.87;;;4.03;;
11970;SDS011;6045;42.682;23.294;2023-12-04T04:25:00;7.43;;;3.83;;
11970;SDS011;6045;42.682;23.294;2023-12-04T04:27:27;7.30;;;3.93;;
11970;SDS011;6045;42.682;23.294;2023-12-04T04:29:54;7.37;;;4.10;;
11970;SDS011;6045;42.682;23.294;2023-12-04T04:32:21;7.03;;;4.03;;
11970;SDS011;6045;42.682;23.294;2023-12-04T04:34:48;7.17;;;4.07;;
11970;SDS011;6045;42.682;23.294;2023-12-04T04:37:15;8.67;;;4.40;;
11970;SDS011;6045;42.682;23.294;2023-12-04T04:39:42;7.60;;;4.30;;
11970;SDS011;6045;42.682;23.294;2023-12-04T04:42:11;8.03;;;4.43;;
11970;SDS011;6045;42.682;23.294;2023-12-04T04:44:38;6.73;;;3.87;;
11970;SDS011;6045;42.682;23.294;2023-12-04T04:47:04;6.07;;;4.00;;
11970;SDS011;6045;42.682;23.294;2023-12-04T04:49:32;8.17;;;4.30;;
11970;SDS011;6045;42.682;23.294;2023-12-04T04:51:59;9.07;;;3.90;;
11970;SDS011;6045;42.682;23.294;2023-12-04T04:54:25;8.80;;;4.17;;
11970;SDS011;6045;42.682;23.294;2023-12-04T04:56:52;7.47;;;4.70;;
11970;SDS011;6045;42.682;23.294;2023-12-04T04:59:21;8.60;;;4.57;;
11970;SDS011;6045;42.682;23.294;2023-12-04T05:01:48;8.97;;;5.17;;
11970;SDS011;6045;42.682;23.294;2023-12-04T05:04:15;8.17;;;4.73;;
11970;SDS011;6045;42.682;23.294;2023-12-04T05:06:42;10.87;;;4.50;;
11970;SDS011;6045;42.682;23.294;2023-12-04T05:09:09;8.30;;;4.10;;
11970;SDS011;6045;42.682;23.294;2023-12-04T05:11:36;7.50;;;4.13;;
11970;SDS011;6045;42.682;23.294;2023-12-04T05:14:03;7.30;;;4.60;;
11970;SDS011;6045;42.682;23.294;2023-12-04T05:16:31;6.53;;;4.10;;
11970;SDS011;6045;42.682;23.294;2023-12-04T05:18:58;6.17;;;4.07;;
11970;SDS011;6045;42.682;23.294;2023-12-04T05:21:25;5.93;;;4.50;;
11970;SDS011;6045;42.682;23.294;2023-12-04T05:23:52;7.37;;;5.03;;
11970;SDS011;6045;42.682;23.294;2023-12-04T05:26:19;9.63;;;5.50;;
11970;SDS011;6045;42.682;23.294;2023-12-04T05:28:46;9.03;;;4.80;;
11970;SDS011;6045;42.682;23.294;2023-12-04T05:31:12;9.17;;;5.30;;
11970;SDS011;6045;42.682;23.294;2023-12-04T05:33:41;11.90;;;6.27;;
11970;SDS011;6045;42.682;23.294;2023-12-04T05:36:09;8.93;;;6.03;;
11970;SDS011;6045;42.682;23.294;2023-12-04T05:38:36;7.97;;;5.30;;
11970;SDS011;6045;42.682;23.294;2023-12-04T05:41:03;7.03;;;4.53;;
11970;SDS011;6045;42.682;23.294;2023-12-04T05:43:30;9.37;;;5.80;;
11970;SDS011;6045;42.682;23.294;2023-12-04T05:45:57;10.83;;;5.57;;
11970;SDS011;6045;42.682;23.294;2023-12-04T05:48:24;11.67;;;5.63;;
11970;SDS011;6045;42.682;23.294;2023-12-04T05:50:52;8.43;;;5.67;;
11970;SDS011;6045;42.682;23.294;2023-12-04T05:53:19;10.30;;;5.37;;
11970;SDS011;6045;42.682;23.294;2023-12-04T05:55:46;10.70;;;5.23;;
11970;SDS011;6045;42.682;23.294;2023-12-04T05:58:13;9.57;;;5.40;;
11970;SDS011;6045;42.682;23.294;2023-12-04T06:00:40;9.33;;;5.57;;
11970;SDS011;6045;42.682;23.294;2023-12-04T06:03:07;10.37;;;5.23;;
11970;SDS011;6045;42.682;23.294;2023-12-04T06:05:34;8.00;;;5.07;;
11970;SDS011;6045;42.682;23.294;2023-12-04T06:08:02;5.97;;;4.43;;
11970;SDS011;6045;42.682;23.294;2023-12-04T06:10:30;7.17;;;4.53;;
11970;SDS011;6045;42.682;23.294;2023-12-04T06:12:57;7.20;;;4.83;;
11970;SDS011;6045;42.682;23.294;2023-12-04T06:15:24;7.27;;;5.00;;
11970;SDS011;6045;42.682;23.294;2023-12-04T06:17:51;10.23;;;5.30;;
11970;SDS011;6045;42.682;23.294;2023-12-04T06:20:18;11.07;;;5.60;;
11970;SDS011;6045;42.682;23.294;2023-12-04T06:22:45;9.67;;;4.93;;
11970;SDS011;6045;42.682;23.294;2023-12-04T06:25:14;6.57;;;4.90;;
11970;SDS011;6045;42.682;23.294;2023-12-04T06:27:42;13.10;;;5.63;;
11970;SDS011;6045;42.682;23.294;2023-12-04T06:30:10;9.77;;;5.50;;
11970;SDS011;6045;42.682;23.294;2023-12-04T06:32:38;12.23;;;5.10;;
11970;SDS011;6045;42.682;23.294;2023-12-04T06:35:05;9.60;;;4.57;;
11970;SDS011;6045;42.682;23.294;2023-12-04T06:37:34;6.37;;;3.87;;
11970;SDS011;6045;42.682;23.294;2023-12-04T06:40:03;8.77;;;5.17;;
11970;SDS011;6045;42.682;23.294;2023-12-04T06:42:35;9.63;;;4.97;;
11970;SDS011;6045;42.682;23.294;2023-12-04T06:45:03;10.80;;;5.97;;
11970;SDS011;6045;42.682;23.294;2023-12-04T06:47:31;13.67;;;5.50;;
11970;SDS011;6045;42.682;23.294;2023-12-04T06:50:00;9.73;;;4.47;;
11970;SDS011;6045;42.682;23.294;2023-12-04T06:52:27;6.87;;;4.60;;
11970;SDS011;6045;42.682;23.294;2023-12-04T06:54:54;8.13;;;4.70;;
11970;SDS011;6045;42.682;23.294;2023-12-04T06:57:21;8.40;;;5.10;;
11970;SDS011;6045;42.682;23.294;2023-12-04T06:59:50;7.07;;;4.83;;
11970;SDS011;6045;42.682;23.294;2023-12-04T07:02:17;8.03;;;4.20;;
11970;SDS011;6045;42.682;23.294;2023-12-04T07:04:44;8.57;;;4.93;;
11970;SDS011;6045;42.682;23.294;2023-12-04T07:07:11;8.67;;;4.53;;
11970;SDS011;6045;42.682;23.294;2023-12-04T07:09:38;5.33;;;4.17;;
11970;SDS011;6045;42.682;23.294;2023-12-04T07:12:05;8.37;;;5.57;;
11970;SDS011;6045;42.682;23.294;2023-12-04T07:14:32;9.20;;;5.27;;
11970;SDS011;6045;42.682;23.294;2023-12-04T07:17:01;8.10;;;5.23;;
11970;SDS011;6045;42.682;23.294;2023-12-04T07:19:28;12.07;;;4.73;;
11970;SDS011;6045;42.682;23.294;2023-12-04T07:21:55;12.67;;;6.63;;
11970;SDS011;6045;42.682;23.294;2023-12-04T07:24:22;33.37;;;15.23;;
11970;SDS011;6045;42.682;23.294;2023-12-04T07:26:51;12.27;;;6.43;;
11970;SDS011;6045;42.682;23.294;2023-12-04T07:29:18;8.63;;;4.90;;
11970;SDS011;6045;42.682;23.294;2023-12-04T07:31:45;8.07;;;5.27;;
11970;SDS011;6045;42.682;23.294;2023-12-04T07:34:14;8.43;;;4.40;;
11970;SDS011;6045;42.682;23.294;2023-12-04T07:36:41;6.67;;;4.40;;
11970;SDS011;6045;42.682;23.294;2023-12-04T07:39:09;5.13;;;4.20;;
11970;SDS011;6045;42.682;23.294;2023-12-04T07:41:36;10.93;;;5.40;;
11970;SDS011;6045;42.682;23.294;2023-12-04T07:44:03;6.50;;;4.83;;
11970;SDS011;6045;42.682;23.294;2023-12-04T07:46:30;10.17;;;5.13;;
11970;SDS011;6045;42.682;23.294;2023-12-04T07:48:57;7.03;;;4.60;;
11970;SDS011;6045;42.682;23.294;2023-12-04T07:51:26;6.77;;;3.97;;
11970;SDS011;6045;42.682;23.294;2023-12-04T07:53:53;6.33;;;4.57;;
11970;SDS011;6045;42.682;23.294;2023-12-04T07:56:20;9.10;;;5.10;;
11970;SDS011;6045;42.682;23.294;2023-12-04T07:58:47;6.20;;;3.90;;
11970;SDS011;6045;42.682;23.294;2023-12-04T08:01:14;6.03;;;4.00;;
11970;SDS011;6045;42.682;23.294;2023-12-04T08:03:41;6.70;;;4.17;;
11970;SDS011;6045;42.682;23.294;2023-12-04T08:06:08;6.30;;;4.10;;
11970;SDS011;6045;42.682;23.294;2023-12-04T08:08:39;5.23;;;4.00;;
11970;SDS011;6045;42.682;23.294;2023-12-04T08:11:09;7.33;;;4.73;;
11970;SDS011;6045;42.682;23.294;2023-12-04T08:13:36;7.30;;;3.80;;
11970;SDS011;6045;42.682;23.294;2023-12-04T08:16:05;4.23;;;3.37;;
11970;SDS011;6045;42.682;23.294;2023-12-04T08:18:39;4.50;;;3.50;;
11970;SDS011;6045;42.682;23.294;2023-12-04T08:21:06;3.93;;;2.70;;
11970;SDS011;6045;42.682;23.294;2023-12-04T08:23:34;4.30;;;3.07;;
11970;SDS011;6045;42.682;23.294;2023-12-04T08:26:03;6.53;;;2.90;;
11970;SDS011;6045;42.682;23.294;2023-12-04T08:28:30;5.10;;;3.37;;
11970;SDS011;6045;42.682;23.294;2023-12-04T08:30:57;7.20;;;3.50;;
11970;SDS011;6045;42.682;23.294;2023-12-04T08:33:24;4.50;;;3.43;;
11970;SDS011;6045;42.682;23.294;2023-12-04T08:35:51;4.43;;;3.17;;
11970;SDS011;6045;42.682;23.294;2023-12-04T08:38:17;5.73;;;3.13;;
11970;SDS011;6045;42.682;23.294;2023-12-04T08:40:44;6.13;;;3.30;;
11970;SDS011;6045;42.682;23.294;2023-12-04T08:43:13;4.27;;;3.40;;
11970;SDS011;6045;42.682;23.294;2023-12-04T08:45:40;4.17;;;3.17;;
11970;SDS011;6045;42.682;23.294;2023-12-04T08:48:06;4.60;;;3.37;;
11970;SDS011;6045;42.682;23.294;2023-12-04T08:50:34;5.00;;;3.73;;
11970;SDS011;6045;42.682;23.294;2023-12-04T08:53:02;8.00;;;3.37;;
11970;SDS011;6045;42.682;23.294;2023-12-04T08:55:29;4.50;;;3.37;;
11970;SDS011;6045;42.682;23.294;2023-12-04T08:57:56;5.83;;;3.83;;
11970;SDS011;6045;42.682;23.294;2023-12-04T09:00:24;9.93;;;4.13;;
11970;SDS011;6045;42.682;23.294;2023-12-04T09:02:51;6.57;;;3.90;;
11970;SDS011;6045;42.682;23.294;2023-12-04T09:05:21;7.33;;;3.90;;
11970;SDS011;6045;42.682;23.294;2023-12-04T09:07:48;5.57;;;3.63;;
11970;SDS011;6045;42.682;23.294;2023-12-04T09:10:15;6.73;;;3.60;;
11970;SDS011;6045;42.682;23.294;2023-12-04T09:12:43;4.57;;;2.80;;
11970;SDS011;6045;42.682;23.294;2023-12-04T09:15:10;5.27;;;3.67;;
11970;SDS011;6045;42.682;23.294;2023-12-04T09:17:39;6.13;;;3.83;;
11970;SDS011;6045;42.682;23.294;2023-12-04T09:20:06;4.70;;;3.73;;
11970;SDS011;6045;42.682;23.294;2023-12-04T09:22:34;5.83;;;3.60;;
11970;SDS011;6045;42.682;23.294;2023-12-04T09:25:03;4.90;;;3.60;;
11970;SDS011;6045;42.682;23.294;2023-12-04T09:27:31;6.00;;;4.03;;
11970;SDS011;6045;42.682;23.294;2023-12-04T09:29:58;4.10;;;3.13;;
11970;SDS011;6045;42.682;23.294;2023-12-04T09:32:25;7.77;;;3.63;;
11970;SDS011;6045;42.682;23.294;2023-12-04T09:34:53;4.37;;;3.37;;
11970;SDS011;6045;42.682;23.294;2023-12-04T09:37:20;4.00;;;3.17;;
11970;SDS011;6045;42.682;23.294;2023-12-04T09:39:47;8.10;;;4.17;;
11970;SDS011;6045;42.682;23.294;2023-12-04T09:42:14;4.33;;;3.63;;
11970;SDS011;6045;42.682;23.294;2023-12-04T09:44:44;4.17;;;3.50;;
11970;SDS011;6045;42.682;23.294;2023-12-04T09:47:14;5.17;;;3.30;;
11970;SDS011;6045;42.682;23.294;2023-12-04T09:49:42;4.50;;;3.80;;
11970;SDS011;6045;42.682;23.294;2023-12-04T09:52:12;3.20;;;2.87;;
11970;SDS011;6045;42.682;23.294;2023-12-04T09:54:39;4.43;;;3.07;;
11970;SDS011;6045;42.682;23.294;2023-12-04T09:57:07;5.30;;;3.23;;
11970;SDS011;6045;42.682;23.294;2023-12-04T09:59:34;4.57;;;3.27;;
11970;SDS011;6045;42.682;23.294;2023-12-04T10:02:03;6.23;;;3.60;;
11970;SDS011;6045;42.682;23.294;2023-12-04T10:04:31;4.77;;;3.87;;
11970;SDS011;6045;42.682;23.294;2023-12-04T10:06:58;4.43;;;3.27;;
11970;SDS011;6045;42.682;23.294;2023-12-04T10:09:26;3.60;;;3.00;;
11970;SDS011;6045;42.682;23.294;2023-12-04T10:11:54;3.60;;;3.27;;
11970;SDS011;6045;42.682;23.294;2023-12-04T10:14:22;3.30;;;2.87;;
11970;SDS011;6045;42.682;23.294;2023-12-04T10:16:50;3.93;;;2.90;;
11970;SDS011;6045;42.682;23.294;2023-12-04T10:19:19;3.45;;;3.00;;
11970;SDS011;6045;42.682;23.294;2023-12-04T10:21:48;3.65;;;2.95;;
11970;SDS011;6045;42.682;23.294;2023-12-04T10:24:28;6.93;;;3.65;;
11970;SDS011;6045;42.682;23.294;2023-12-04T10:26:56;4.00;;;3.27;;
11970;SDS011;6045;42.682;23.294;2023-12-04T10:29:25;4.53;;;3.33;;
11970;SDS011;6045;42.682;23.294;2023-12-04T10:31:54;4.03;;;3.40;;
11970;SDS011;6045;42.682;23.294;2023-12-04T10:34:21;5.03;;;3.53;;
11970;SDS011;6045;42.682;23.294;2023-12-04T10:36:51;5.28;;;3.65;;
11970;SDS011;6045;42.682;23.294;2023-12-04T10:39:18;3.92;;;3.33;;
11970;SDS011;6045;42.682;23.294;2023-12-04T10:41:47;4.87;;;3.23;;
11970;SDS011;6045;42.682;23.294;2023-12-04T10:44:27;4.38;;;3.40;;
11970;SDS011;6045;42.682;23.294;2023-12-04T10:46:54;5.25;;;3.08;;
11970;SDS011;6045;42.682;23.294;2023-12-04T10:49:25;3.75;;;3.28;;
11970;SDS011;6045;42.682;23.294;2023-12-04T10:51:55;4.53;;;3.25;;
11970;SDS011;6045;42.682;23.294;2023-12-04T10:54:24;3.25;;;2.88;;
11970;SDS011;6045;42.682;23.294;2023-12-04T10:56:53;4.15;;;3.17;;
11970;SDS011;6045;42.682;23.294;2023-12-04T10:59:28;4.25;;;3.47;;
11970;SDS011;6045;42.682;23.294;2023-12-04T11:02:03;5.43;;;4.00;;
11970;SDS011;6045;42.682;23.294;2023-12-04T11:04:33;5.38;;;3.58;;
11970;SDS011;6045;42.682;23.294;2023-12-04T11:07:03;4.57;;;3.53;;
11970;SDS011;6045;42.682;23.294;2023-12-04T11:09:31;3.67;;;3.30;;
11970;SDS011;6045;42.682;23.294;2023-12-04T11:12:04;4.13;;;3.00;;
11970;SDS011;6045;42.682;23.294;2023-12-04T11:14:37;4.90;;;3.30;;
11970;SDS011;6045;42.682;23.294;2023-12-04T11:17:12;6.30;;;3.27;;
11970;SDS011;6045;42.682;23.294;2023-12-04T11:19:43;3.90;;;3.00;;
11970;SDS011;6045;42.682;23.294;2023-12-04T11:22:18;3.90;;;3.10;;
11970;SDS011;6045;42.682;23.294;2023-12-04T11:24:47;6.53;;;3.50;;
11970;SDS011;6045;42.682;23.294;2023-12-04T11:27:16;5.35;;;3.83;;
11970;SDS011;6045;42.682;23.294;2023-12-04T11:29:44;6.33;;;4.20;;
11970;SDS011;6045;42.682;23.294;2023-12-04T11:32:13;4.63;;;3.33;;
11970;SDS011;6045;42.682;23.294;2023-12-04T11:34:47;6.40;;;3.53;;
11970;SDS011;6045;42.682;23.294;2023-12-04T11:37:14;5.40;;;3.63;;
11970;SDS011;6045;42.682;23.294;2023-12-04T11:39:41;5.20;;;3.30;;
11970;SDS011;6045;42.682;23.294;2023-12-04T11:42:08;5.33;;;3.67;;
11970;SDS011;6045;42.682;23.294;2023-12-04T11:44:38;5.50;;;3.80;;
11970;SDS011;6045;42.682;23.294;2023-12-04T11:47:07;4.27;;;3.87;;
11970;SDS011;6045;42.682;23.294;2023-12-04T11:49:34;4.90;;;3.45;;
11970;SDS011;6045;42.682;23.294;2023-12-04T11:52:03;4.67;;;3.33;;
11970;SDS011;6045;42.682;23.294;2023-12-04T11:57:24;7.07;;;4.40;;
11970;SDS011;6045;42.682;23.294;2023-12-04T12:00:05;4.97;;;3.88;;
11970;SDS011;6045;42.682;23.294;2023-12-04T12:02:40;5.82;;;4.18;;
11970;SDS011;6045;42.682;23.294;2023-12-04T12:05:07;4.83;;;4.27;;
11970;SDS011;6045;42.682;23.294;2023-12-04T12:07:34;7.78;;;4.57;;
11970;SDS011;6045;42.682;23.294;2023-12-04T12:10:02;6.33;;;4.50;;
11970;SDS011;6045;42.682;23.294;2023-12-04T12:12:30;5.45;;;4.15;;
11970;SDS011;6045;42.682;23.294;2023-12-04T12:14:58;6.85;;;4.15;;
11970;SDS011;6045;42.682;23.294;2023-12-04T12:17:27;5.60;;;4.50;;
11970;SDS011;6045;42.682;23.294;2023-12-04T12:19:54;6.00;;;4.50;;
11970;SDS011;6045;42.682;23.294;2023-12-04T12:22:22;7.38;;;4.07;;
11970;SDS011;6045;42.682;23.294;2023-12-04T12:24:50;6.68;;;4.60;;
11970;SDS011;6045;42.682;23.294;2023-12-04T12:27:17;7.75;;;4.07;;
11970;SDS011;6045;42.682;23.294;2023-12-04T12:29:44;6.57;;;4.50;;
11970;SDS011;6045;42.682;23.294;2023-12-04T12:32:10;5.63;;;4.85;;
11970;SDS011;6045;42.682;23.294;2023-12-04T12:34:39;5.88;;;4.53;;
11970;SDS011;6045;42.682;23.294;2023-12-04T12:37:06;6.13;;;4.65;;
11970;SDS011;6045;42.682;23.294;2023-12-04T12:39:33;5.25;;;4.35;;
11970;SDS011;6045;42.682;23.294;2023-12-04T12:42:00;7.28;;;4.90;;
11970;SDS011;6045;42.682;23.294;2023-12-04T12:44:35;7.03;;;4.97;;
11970;SDS011;6045;42.682;23.294;2023-12-04T12:47:05;6.45;;;4.53;;
11970;SDS011;6045;42.682;23.294;2023-12-04T12:49:32;6.40;;;5.15;;
11970;SDS011;6045;42.682;23.294;2023-12-04T12:52:02;5.85;;;4.78;;
11970;SDS011;6045;42.682;23.294;2023-12-04T12:54:33;5.88;;;4.72;;
11970;SDS011;6045;42.682;23.294;2023-12-04T12:57:02;5.90;;;5.03;;
11970;SDS011;6045;42.682;23.294;2023-12-04T12:59:29;8.35;;;5.97;;
11970;SDS011;6045;42.682;23.294;2023-12-04T13:01:56;6.88;;;5.20;;
11970;SDS011;6045;42.682;23.294;2023-12-04T13:04:25;8.32;;;5.78;;
11970;SDS011;6045;42.682;23.294;2023-12-04T13:06:52;6.03;;;5.43;;
11970;SDS011;6045;42.682;23.294;2023-12-04T13:09:20;8.80;;;5.55;;
11970;SDS011;6045;42.682;23.294;2023-12-04T13:11:47;8.43;;;5.53;;
11970;SDS011;6045;42.682;23.294;2023-12-04T13:14:17;8.45;;;5.90;;
11970;SDS011;6045;42.682;23.294;2023-12-04T13:16:43;10.05;;;5.75;;
11970;SDS011;6045;42.682;23.294;2023-12-04T13:19:10;9.35;;;5.78;;
11970;SDS011;6045;42.682;23.294;2023-12-04T13:21:37;7.57;;;5.35;;
11970;SDS011;6045;42.682;23.294;2023-12-04T13:24:04;8.07;;;5.88;;
11970;SDS011;6045;42.682;23.294;2023-12-04T13:26:35;8.95;;;6.07;;
11970;SDS011;6045;42.682;23.294;2023-12-04T13:29:03;12.13;;;7.80;;
11970;SDS011;6045;42.682;23.294;2023-12-04T13:31:31;13.23;;;8.18;;
11970;SDS011;6045;42.682;23.294;2023-12-04T13:33:58;11.15;;;8.77;;
11970;SDS011;6045;42.682;23.294;2023-12-04T13:36:25;16.13;;;9.43;;
11970;SDS011;6045;42.682;23.294;2023-12-04T13:38:52;14.77;;;8.82;;
11970;SDS011;6045;42.682;23.294;2023-12-04T13:41:19;14.55;;;8.95;;
11970;SDS011;6045;42.682;23.294;2023-12-04T13:44:01;13.18;;;8.85;;
11970;SDS011;6045;42.682;23.294;2023-12-04T13:46:29;13.15;;;8.45;;
11970;SDS011;6045;42.682;23.294;2023-12-04T13:48:56;10.57;;;8.15;;
11970;SDS011;6045;42.682;23.294;2023-12-04T13:51:23;12.48;;;8.35;;
11970;SDS011;6045;42.682;23.294;2023-12-04T13:53:52;12.55;;;8.15;;
11970;SDS011;6045;42.682;23.294;2023-12-04T13:56:21;10.75;;;8.25;;
11970;SDS011;6045;42.682;23.294;2023-12-04T13:59:08;53.20;;;29.00;;
11970;SDS011;6045;42.682;23.294;2023-12-04T14:01:43;21.05;;;13.95;;
11970;SDS011;6045;42.682;23.294;2023-12-04T14:04:10;11.70;;;8.57;;
11970;SDS011;6045;42.682;23.294;2023-12-04T14:06:37;12.65;;;8.40;;
11970;SDS011;6045;42.682;23.294;2023-12-04T14:09:04;14.35;;;8.85;;
11970;SDS011;6045;42.682;23.294;2023-12-04T14:11:35;14.10;;;8.65;;
11970;SDS011;6045;42.682;23.294;2023-12-04T14:14:02;10.35;;;7.97;;
11970;SDS011;6045;42.682;23.294;2023-12-04T14:16:31;15.18;;;8.90;;
11970;SDS011;6045;42.682;23.294;2023-12-04T14:18:58;11.90;;;8.13;;
11970;SDS011;6045;42.682;23.294;2023-12-04T14:21:25;14.73;;;8.53;;
11970;SDS011;6045;42.682;23.294;2023-12-04T14:23:51;10.93;;;8.03;;
11970;SDS011;6045;42.682;23.294;2023-12-04T14:26:18;12.23;;;8.23;;
11970;SDS011;6045;42.682;23.294;2023-12-04T14:28:45;10.83;;;8.27;;
11970;SDS011;6045;42.682;23.294;2023-12-04T14:31:12;14.47;;;8.60;;
11970;SDS011;6045;42.682;23.294;2023-12-04T14:33:41;11.70;;;7.70;;
11970;SDS011;6045;42.682;23.294;2023-12-04T14:36:08;17.53;;;8.60;;
11970;SDS011;6045;42.682;23.294;2023-12-04T14:38:37;14.27;;;8.13;;
11970;SDS011;6045;42.682;23.294;2023-12-04T14:41:04;14.47;;;8.47;;
11970;SDS011;6045;42.682;23.294;2023-12-04T14:43:31;15.50;;;8.43;;
11970;SDS011;6045;42.682;23.294;2023-12-04T14:45:59;13.83;;;7.73;;
11970;SDS011;6045;42.682;23.294;2023-12-04T14:48:26;11.43;;;7.03;;
11970;SDS011;6045;42.682;23.294;2023-12-04T14:50:54;15.70;;;7.63;;
11970;SDS011;6045;42.682;23.294;2023-12-04T14:53:21;17.00;;;7.83;;